Time;durP1;ratioP1;P1;durP2;ratioP2;P2;SDS_P1;SDS_P2;PMS_P1;PMS_P2;Temp;Humidity;BMP_temperature;BMP_pressure;BME280_temperature;BME280_humidity;BME280_pressure;Samples;Min_cycle;Max_cycle;Signal;HPM_P1;HPM_P2
2023/01/17 00:02:14;;;;;;;8.33;7.63;;;3.10;99.90;;;;;;5012119;28;20187;-65
2023/01/17 00:10:17;;;;;;;9.47;8.57;;;3.00;99.90;;;;;;4997054;28;20227;-65
2023/01/17 00:12:58;;;;;;;9.03;8.17;;;3.00;99.90;;;;;;4997175;28;20215;-66
2023/01/17 00:15:25;;;;;;;9.57;8.63;;;3.10;99.90;;;;;;4996838;28;20181;-66
2023/01/17 00:17:51;;;;;;;9.93;8.93;;;3.10;99.90;;;;;;5011802;28;20180;-65
2023/01/17 00:26:13;;;;;;;11.37;10.17;;;3.10;99.90;;;;;;4997803;28;20196;-65
2023/01/17 01:35:53;;;;;;;9.03;8.23;;;3.10;99.90;;;;;;4996141;28;20179;-65
2023/01/17 01:38:21;;;;;;;9.63;8.73;;;3.10;99.90;;;;;;4995575;28;20186;-65
2023/01/17 01:40:50;;;;;;;9.70;8.80;;;3.10;99.90;;;;;;4995531;28;20239;-65
2023/01/17 01:43:18;;;;;;;10.30;9.10;;;3.10;99.90;;;;;;4995231;28;20204;-65
2023/01/17 01:45:51;;;;;;;9.60;8.70;;;3.10;99.90;;;;;;4995336;28;20219;-63
2023/01/17 01:48:53;;;;;;;9.43;8.53;;;3.00;99.90;;;;;;5010149;28;20177;-65
2023/01/17 01:51:23;;;;;;;10.17;9.17;;;3.10;99.90;;;;;;4995118;28;20263;-65
2023/01/17 01:53:53;;;;;;;9.33;8.43;;;3.10;99.90;;;;;;4994949;28;20201;-64
2023/01/17 01:56:22;;;;;;;8.97;8.17;;;3.00;99.90;;;;;;4994784;28;20653;-64
2023/01/17 01:58:50;;;;;;;9.60;8.70;;;3.00;99.90;;;;;;4994306;28;20191;-64
2023/01/17 02:01:16;;;;;;;9.03;8.17;;;2.90;99.90;;;;;;4994758;28;20200;-63
2023/01/17 02:03:43;;;;;;;9.10;8.30;;;2.90;99.90;;;;;;4994678;28;20204;-64
2023/01/17 02:06:24;;;;;;;9.07;8.27;;;2.80;99.90;;;;;;4994651;28;20173;-64
2023/01/17 02:08:50;;;;;;;9.67;8.87;;;2.80;99.90;;;;;;4994986;28;20188;-64
2023/01/17 02:11:16;;;;;;;10.10;9.20;;;2.80;99.90;;;;;;4994596;28;20664;-64
2023/01/17 02:13:42;;;;;;;9.77;8.87;;;2.70;99.90;;;;;;4994616;28;20222;-64
2023/01/17 02:16:29;;;;;;;9.37;8.47;;;2.70;99.90;;;;;;4994846;28;20268;-64
2023/01/17 02:19:05;;;;;;;8.47;7.77;;;2.70;99.90;;;;;;4994883;28;20169;-63
2023/01/17 02:21:38;;;;;;;9.10;8.13;;;2.60;99.90;;;;;;4994511;28;20242;-64
2023/01/17 02:24:13;;;;;;;8.63;7.73;;;2.60;99.90;;;;;;4994472;28;20296;-64
2023/01/17 02:26:57;;;;;;;8.03;7.33;;;2.60;99.90;;;;;;4994251;28;20190;-64
2023/01/17 02:29:32;;;;;;;8.47;7.73;;;2.60;99.90;;;;;;4993072;28;20179;-64
2023/01/17 02:32:31;;;;;;;8.10;7.43;;;2.60;99.90;;;;;;4993127;28;20176;-65
2023/01/17 02:35:39;;;;;;;11.57;8.03;;;2.60;99.90;;;;;;4989435;28;20195;-64
2023/01/17 02:38:34;;;;;;;7.63;6.90;;;2.60;99.90;;;;;;4981265;28;20200;-64
2023/01/17 02:41:12;;;;;;;6.60;6.13;;;2.50;99.90;;;;;;4994303;28;20653;-64
2023/01/17 02:43:39;;;;;;;6.90;6.30;;;2.30;99.90;;;;;;4994193;28;20250;-64
2023/01/17 02:46:04;;;;;;;6.50;6.10;;;2.10;99.90;;;;;;4993986;28;20268;-64
2023/01/17 02:48:34;;;;;;;6.67;6.17;;;1.90;99.90;;;;;;4993921;28;20200;-66
2023/01/17 02:51:32;;;;;;;7.13;6.63;;;1.80;99.90;;;;;;4994078;28;20299;-65
2023/01/17 02:54:17;;;;;;;7.67;6.93;;;1.80;99.90;;;;;;4993309;28;20213;-65
2023/01/17 02:57:05;;;;;;;8.20;7.60;;;1.70;99.90;;;;;;4993965;28;20175;-64
2023/01/17 03:00:12;;;;;;;8.67;7.93;;;1.70;99.90;;;;;;4994132;28;20243;-64
2023/01/17 03:02:51;;;;;;;10.10;9.17;;;1.80;99.90;;;;;;4984887;28;20224;-64
2023/01/17 03:05:26;;;;;;;10.23;9.33;;;1.90;99.90;;;;;;4994045;28;20167;-65
2023/01/17 03:07:53;;;;;;;13.07;11.20;;;2.00;99.90;;;;;;4994064;28;20226;-64
2023/01/17 03:10:20;;;;;;;12.10;10.97;;;2.10;99.90;;;;;;4997232;28;20168;-64
2023/01/17 03:12:46;;;;;;;12.03;9.77;;;2.10;99.90;;;;;;4997999;28;20188;-65
2023/01/17 03:15:16;;;;;;;15.50;10.27;;;2.10;99.90;;;;;;4997834;28;20203;-64
2023/01/17 03:17:47;;;;;;;10.50;9.50;;;2.00;99.90;;;;;;4996570;28;20176;-65
2023/01/17 03:20:13;;;;;;;9.57;8.77;;;1.80;99.90;;;;;;4998092;28;20245;-65
2023/01/17 03:22:39;;;;;;;10.67;8.27;;;1.70;99.90;;;;;;4998083;28;20192;-64
2023/01/17 03:25:05;;;;;;;8.67;7.93;;;1.40;99.90;;;;;;4998090;28;20230;-66
2023/01/17 03:27:31;;;;;;;9.37;8.50;;;1.20;99.90;;;;;;4997680;28;20676;-66
2023/01/17 03:29:57;;;;;;;7.07;6.57;;;1.00;99.90;;;;;;4997658;28;20177;-66
2023/01/17 03:32:22;;;;;;;6.40;6.00;;;0.90;99.90;;;;;;4997626;28;20192;-66
2023/01/17 03:34:48;;;;;;;5.77;5.47;;;0.80;99.90;;;;;;4997562;28;20176;-66
2023/01/17 03:37:14;;;;;;;5.60;5.30;;;0.70;99.90;;;;;;4996276;28;20177;-66
2023/01/17 03:39:40;;;;;;;5.70;5.30;;;0.70;99.90;;;;;;4996134;28;20180;-66
2023/01/17 03:42:06;;;;;;;5.93;5.53;;;0.70;99.90;;;;;;4997303;28;20709;-65
2023/01/17 03:44:33;;;;;;;5.47;5.20;;;0.70;99.90;;;;;;4997373;28;20192;-65
2023/01/17 03:46:59;;;;;;;5.70;5.33;;;0.60;99.90;;;;;;4996005;28;20184;-65
2023/01/17 03:49:25;;;;;;;5.40;5.20;;;0.60;99.90;;;;;;4997640;28;20689;-66
2023/01/17 03:51:51;;;;;;;5.70;5.40;;;0.60;99.90;;;;;;5012040;28;20215;-65
2023/01/17 03:54:17;;;;;;;6.00;5.60;;;0.60;99.90;;;;;;4997046;28;20224;-65
2023/01/17 03:56:42;;;;;;;5.70;5.40;;;0.60;99.90;;;;;;5012023;28;20202;-65
2023/01/17 03:59:08;;;;;;;5.37;5.07;;;0.60;99.90;;;;;;4997042;28;20701;-66
2023/01/17 04:01:34;;;;;;;5.70;5.40;;;0.60;99.90;;;;;;4996803;28;20230;-66
2023/01/17 04:04:00;;;;;;;6.30;5.90;;;0.60;99.90;;;;;;4997325;28;20197;-66
2023/01/17 04:06:27;;;;;;;7.03;6.53;;;0.70;99.90;;;;;;4996938;28;20622;-66
2023/01/17 04:08:53;;;;;;;7.50;6.90;;;0.60;99.90;;;;;;4996892;28;20165;-66
2023/01/17 04:11:19;;;;;;;7.40;6.90;;;0.70;99.90;;;;;;4996746;28;20573;-66
2023/01/17 04:13:45;;;;;;;7.60;7.00;;;0.70;99.90;;;;;;4996824;28;20544;-66
2023/01/17 04:16:14;;;;;;;8.33;7.53;;;0.70;99.90;;;;;;4996633;28;20311;-66
2023/01/17 04:18:40;;;;;;;9.57;7.73;;;0.70;99.90;;;;;;5011733;28;20180;-66
2023/01/17 04:21:07;;;;;;;9.47;8.47;;;0.70;99.90;;;;;;4995966;28;20231;-66
2023/01/17 04:23:33;;;;;;;13.87;10.10;;;0.70;99.90;;;;;;4997035;28;20672;-66
2023/01/17 04:25:59;;;;;;;17.40;9.73;;;0.80;99.90;;;;;;5011491;28;20184;-66
2023/01/17 04:28:25;;;;;;;12.70;8.90;;;0.80;99.90;;;;;;4996594;28;20251;-66
2023/01/17 04:30:50;;;;;;;11.10;9.03;;;0.80;99.90;;;;;;4996462;28;20540;-66
2023/01/17 04:33:17;;;;;;;14.57;9.30;;;0.80;99.90;;;;;;4995063;28;20208;-66
2023/01/17 04:35:42;;;;;;;11.80;9.67;;;0.90;99.90;;;;;;5011628;28;20700;-65
2023/01/17 04:38:08;;;;;;;10.53;8.83;;;0.90;99.90;;;;;;4996408;28;20173;-65
2023/01/17 04:40:34;;;;;;;10.57;8.30;;;0.90;99.90;;;;;;4994981;28;20204;-66
2023/01/17 04:43:00;;;;;;;10.73;8.67;;;0.90;99.90;;;;;;4994868;28;20215;-66
2023/01/17 04:45:26;;;;;;;10.70;8.83;;;0.90;99.90;;;;;;4996138;28;20180;-66
2023/01/17 04:47:51;;;;;;;11.97;10.37;;;1.00;99.90;;;;;;5011451;28;20181;-66
2023/01/17 04:50:17;;;;;;;10.70;8.93;;;0.90;99.90;;;;;;4996087;28;20207;-66
2023/01/17 04:52:43;;;;;;;10.50;9.07;;;1.00;99.90;;;;;;4994767;28;20200;-66
2023/01/17 04:55:09;;;;;;;12.33;9.20;;;1.00;99.90;;;;;;5010987;28;20676;-66
2023/01/17 04:57:35;;;;;;;11.47;8.87;;;1.00;99.90;;;;;;4996253;28;20520;-66
2023/01/17 05:00:01;;;;;;;11.30;9.60;;;1.00;99.90;;;;;;4994592;28;20204;-65
2023/01/17 05:02:27;;;;;;;11.70;9.40;;;1.00;99.90;;;;;;4995914;28;20192;-65
2023/01/17 05:04:53;;;;;;;10.43;9.40;;;1.00;99.90;;;;;;4996418;28;20625;-65
2023/01/17 05:07:18;;;;;;;11.83;10.20;;;1.00;99.90;;;;;;4996031;28;20173;-65
2023/01/17 05:09:44;;;;;;;11.87;10.60;;;1.10;99.90;;;;;;4994754;28;20200;-65
2023/01/17 05:12:10;;;;;;;15.03;10.77;;;1.10;99.90;;;;;;4994805;28;20188;-66
2023/01/17 05:14:35;;;;;;;14.73;10.53;;;1.10;99.90;;;;;;4996547;28;20700;-65
2023/01/17 05:17:04;;;;;;;19.07;12.23;;;1.10;99.90;;;;;;4995740;28;20198;-65
2023/01/17 05:19:30;;;;;;;19.27;12.63;;;1.10;99.90;;;;;;4995730;28;20172;-65
2023/01/17 05:22:02;;;;;;;14.33;12.03;;;1.10;99.90;;;;;;4995578;28;20207;-66
2023/01/17 05:24:29;;;;;;;14.57;12.20;;;1.10;99.90;;;;;;4995839;28;20168;-65
2023/01/17 05:27:01;;;;;;;15.20;12.17;;;1.10;99.90;;;;;;4995344;28;20177;-66
2023/01/17 05:29:27;;;;;;;18.33;12.47;;;1.10;99.90;;;;;;4996305;28;20161;-66
2023/01/17 05:31:52;;;;;;;19.27;13.10;;;1.10;99.90;;;;;;4995267;28;20586;-66
2023/01/17 05:34:18;;;;;;;14.63;13.03;;;1.10;99.90;;;;;;4994537;28;20196;-66
2023/01/17 05:36:44;;;;;;;18.37;13.43;;;1.10;99.90;;;;;;4994123;28;20173;-66
2023/01/17 05:39:09;;;;;;;18.03;13.70;;;1.20;99.90;;;;;;5010235;28;20185;-66
2023/01/17 05:41:35;;;;;;;24.07;14.03;;;1.10;99.90;;;;;;4994945;28;20196;-66
2023/01/17 05:44:01;;;;;;;18.83;14.07;;;1.20;99.90;;;;;;4995072;28;20231;-66
2023/01/17 05:46:27;;;;;;;17.60;13.03;;;1.20;99.90;;;;;;4994996;28;20188;-66
2023/01/17 05:48:52;;;;;;;19.00;13.70;;;1.20;99.90;;;;;;4994951;28;20228;-66
2023/01/17 05:51:18;;;;;;;21.77;13.03;;;1.20;99.90;;;;;;4993808;28;20263;-66
2023/01/17 05:53:44;;;;;;;17.53;12.90;;;1.10;99.90;;;;;;4994944;28;20556;-66
2023/01/17 05:56:09;;;;;;;19.00;12.93;;;1.10;99.90;;;;;;4994952;28;20172;-66
2023/01/17 05:58:35;;;;;;;16.10;13.13;;;1.10;99.90;;;;;;4994820;28;20173;-66
2023/01/17 06:01:01;;;;;;;20.80;13.57;;;1.00;99.90;;;;;;4994812;28;20193;-65
2023/01/17 06:03:27;;;;;;;24.13;13.60;;;1.00;99.90;;;;;;4994617;28;20192;-65
2023/01/17 06:05:53;;;;;;;20.33;12.73;;;1.00;99.90;;;;;;4994747;28;20180;-65
2023/01/17 06:08:18;;;;;;;19.37;14.07;;;1.00;99.90;;;;;;4994873;28;20180;-66
2023/01/17 06:10:44;;;;;;;22.20;12.83;;;1.00;99.90;;;;;;4994469;28;20177;-65
2023/01/17 06:13:14;;;;;;;18.27;12.80;;;1.00;99.90;;;;;;5009473;28;20200;-65
2023/01/17 06:15:40;;;;;;;19.80;13.10;;;1.00;99.90;;;;;;4994537;28;20191;-66
2023/01/17 06:18:14;;;;;;;22.67;14.00;;;1.00;99.90;;;;;;4994640;28;20173;-66
2023/01/17 06:20:40;;;;;;;20.23;14.10;;;0.90;99.90;;;;;;4994854;28;20211;-66
2023/01/17 06:23:09;;;;;;;15.93;13.20;;;0.90;99.90;;;;;;4995160;28;20184;-65
2023/01/17 06:25:42;;;;;;;19.40;13.33;;;1.00;99.90;;;;;;4994431;28;20179;-66
2023/01/17 06:28:09;;;;;;;17.90;12.17;;;0.90;99.90;;;;;;5010020;28;20164;-65
2023/01/17 06:30:35;;;;;;;17.33;13.93;;;0.90;99.90;;;;;;4993675;28;20176;-65
2023/01/17 06:33:02;;;;;;;20.57;14.03;;;0.90;99.90;;;;;;4994778;28;20194;-65
2023/01/17 06:35:27;;;;;;;21.93;14.07;;;0.90;99.90;;;;;;4995053;28;20176;-65
2023/01/17 06:37:56;;;;;;;16.37;12.33;;;0.90;99.90;;;;;;4993054;28;20238;-65
2023/01/17 06:40:23;;;;;;;17.00;12.47;;;0.80;99.90;;;;;;4992755;28;20254;-65
2023/01/17 06:42:49;;;;;;;15.57;12.17;;;0.80;99.90;;;;;;4994402;28;20215;-65
2023/01/17 06:45:15;;;;;;;20.77;12.60;;;0.70;99.90;;;;;;4993795;28;20180;-65
2023/01/17 06:47:41;;;;;;;18.40;12.93;;;0.80;99.90;;;;;;5009381;28;20720;-65
2023/01/17 06:50:12;;;;;;;20.87;13.53;;;0.70;99.90;;;;;;4994432;28;20169;-65
2023/01/17 06:52:38;;;;;;;18.17;12.57;;;0.70;99.90;;;;;;4994333;28;20188;-65
2023/01/17 06:55:05;;;;;;;21.43;13.37;;;0.80;99.90;;;;;;4994110;28;20172;-65
2023/01/17 06:57:30;;;;;;;20.67;15.23;;;0.80;99.90;;;;;;4993916;28;20237;-65
2023/01/17 06:59:56;;;;;;;20.20;14.73;;;0.80;99.90;;;;;;4992564;28;20263;-65
2023/01/17 07:02:22;;;;;;;25.63;15.33;;;0.80;99.90;;;;;;4993843;28;20303;-66
2023/01/17 07:04:47;;;;;;;22.60;14.80;;;0.80;99.90;;;;;;4994454;28;20173;-65
2023/01/17 07:07:13;;;;;;;24.67;15.17;;;0.80;99.90;;;;;;4993727;28;20180;-65
2023/01/17 07:09:39;;;;;;;21.67;16.33;;;0.80;99.90;;;;;;4992518;28;20230;-65
2023/01/17 07:12:05;;;;;;;22.23;16.23;;;0.80;99.90;;;;;;4992791;28;20272;-65
2023/01/17 07:14:31;;;;;;;28.70;16.70;;;0.90;99.90;;;;;;4993769;28;20645;-65
2023/01/17 07:16:56;;;;;;;24.50;16.30;;;0.90;99.90;;;;;;4993611;28;20195;-64
2023/01/17 07:19:23;;;;;;;28.47;16.57;;;0.90;99.90;;;;;;4993706;28;20176;-63
2023/01/17 07:21:53;;;;;;;22.27;15.23;;;0.90;99.90;;;;;;4993876;28;20283;-63
2023/01/17 07:24:20;;;;;;;23.23;15.73;;;0.90;99.90;;;;;;4993577;28;20268;-63
2023/01/17 07:26:50;;;;;;;23.93;14.60;;;0.90;99.90;;;;;;4993565;28;20586;-63
2023/01/17 07:29:16;;;;;;;20.00;14.00;;;0.90;99.90;;;;;;4993610;28;20169;-63
2023/01/17 07:31:43;;;;;;;23.00;14.90;;;0.80;99.90;;;;;;4993640;28;20208;-62
2023/01/17 07:34:09;;;;;;;25.00;14.90;;;0.90;99.90;;;;;;4993613;28;20757;-67
2023/01/17 07:36:35;;;;;;;23.10;15.57;;;0.80;99.90;;;;;;4993566;28;20183;-63
2023/01/17 07:39:01;;;;;;;22.17;14.73;;;0.80;99.90;;;;;;4993560;28;20180;-63
2023/01/17 07:41:31;;;;;;;23.53;14.63;;;0.80;99.90;;;;;;4993319;28;20192;-63
2023/01/17 07:43:57;;;;;;;22.30;14.70;;;0.80;99.90;;;;;;4993338;28;20208;-64
2023/01/17 07:46:23;;;;;;;28.40;15.33;;;0.70;99.90;;;;;;4993373;28;20176;-64
2023/01/17 07:48:49;;;;;;;26.60;14.87;;;0.70;99.90;;;;;;4993520;28;20179;-64
2023/01/17 07:51:16;;;;;;;22.87;14.83;;;0.70;99.90;;;;;;4992272;28;20184;-64
2023/01/17 07:53:42;;;;;;;23.23;13.77;;;0.70;99.90;;;;;;4993390;28;20200;-64
2023/01/17 07:56:08;;;;;;;20.10;13.67;;;0.80;99.90;;;;;;4994248;28;20254;-64
2023/01/17 07:58:34;;;;;;;25.07;15.03;;;0.80;99.90;;;;;;4997111;28;20681;-63
2023/01/17 08:01:05;;;;;;;24.70;15.47;;;0.90;99.90;;;;;;4997185;28;20565;-63
2023/01/17 08:03:34;;;;;;;25.30;15.93;;;0.90;99.90;;;;;;4997175;28;20184;-63
2023/01/17 08:06:01;;;;;;;25.60;14.97;;;1.00;99.90;;;;;;4996418;28;20176;-64
2023/01/17 08:08:28;;;;;;;29.47;16.97;;;1.00;99.90;;;;;;4997477;28;20177;-64
2023/01/17 08:10:54;;;;;;;31.73;18.93;;;1.00;99.90;;;;;;4996753;28;20267;-63
2023/01/17 08:13:20;;;;;;;35.70;19.83;;;1.00;99.90;;;;;;4996835;28;20209;-65
2023/01/17 08:15:50;;;;;;;23.83;17.23;;;1.00;99.90;;;;;;5011740;28;20708;-65
2023/01/17 08:18:17;;;;;;;29.90;20.40;;;1.00;99.90;;;;;;4996777;28;20184;-64
2023/01/17 08:20:43;;;;;;;25.73;18.07;;;1.00;99.90;;;;;;4996835;28;20199;-69
2023/01/17 08:23:10;;;;;;;31.27;18.67;;;1.00;99.90;;;;;;4996555;28;20200;-64
2023/01/17 08:25:36;;;;;;;33.87;19.70;;;0.90;99.90;;;;;;4996537;28;20172;-64
2023/01/17 08:28:01;;;;;;;30.90;18.67;;;0.90;99.90;;;;;;4996481;28;20231;-64
2023/01/17 08:30:27;;;;;;;26.83;17.60;;;0.90;99.90;;;;;;4996718;28;20172;-65
2023/01/17 08:32:53;;;;;;;36.30;19.10;;;0.90;99.90;;;;;;4996420;28;20219;-64
2023/01/17 08:35:19;;;;;;;28.10;17.10;;;0.90;99.90;;;;;;4997004;28;20173;-65
2023/01/17 08:37:52;;;;;;;31.40;18.33;;;0.90;99.90;;;;;;4995421;28;20266;-64
2023/01/17 08:40:18;;;;;;;37.73;18.67;;;0.90;99.90;;;;;;4996241;28;20195;-65
2023/01/17 08:42:52;;;;;;;30.63;19.73;;;0.90;99.90;;;;;;4996416;28;20298;-65
2023/01/17 08:45:17;;;;;;;26.43;17.47;;;1.00;99.90;;;;;;4996200;28;20267;-64
2023/01/17 08:47:43;;;;;;;27.90;17.80;;;1.00;99.90;;;;;;4996227;28;20307;-65
2023/01/17 08:50:09;;;;;;;32.40;18.77;;;1.00;99.90;;;;;;4996641;28;20234;-64
2023/01/17 08:52:35;;;;;;;25.07;17.20;;;0.90;99.90;;;;;;4996117;28;20192;-64
2023/01/17 08:55:02;;;;;;;29.03;18.20;;;1.00;99.90;;;;;;4996260;28;20173;-68
2023/01/17 08:57:28;;;;;;;30.73;19.33;;;1.00;99.90;;;;;;5010991;28;20183;-64
2023/01/17 08:59:54;;;;;;;33.00;19.23;;;1.00;99.90;;;;;;4996220;28;20165;-64
2023/01/17 09:02:20;;;;;;;36.53;19.53;;;1.10;99.90;;;;;;4995727;28;20200;-64
2023/01/17 09:04:47;;;;;;;35.63;19.77;;;1.10;99.90;;;;;;5010969;28;20263;-64
2023/01/17 09:07:14;;;;;;;30.00;18.83;;;1.10;99.90;;;;;;4995573;28;20180;-64
2023/01/17 09:09:40;;;;;;;31.10;18.30;;;1.10;99.90;;;;;;4996076;28;20175;-64
2023/01/17 09:12:06;;;;;;;27.50;17.17;;;1.10;99.90;;;;;;4995542;28;20612;-64
2023/01/17 09:14:32;;;;;;;36.90;18.93;;;1.10;99.90;;;;;;4995678;28;20179;-64
2023/01/17 09:16:58;;;;;;;33.07;17.77;;;1.10;99.90;;;;;;4995610;28;20188;-64
2023/01/17 09:19:24;;;;;;;33.30;20.47;;;1.10;99.90;;;;;;4994232;28;20276;-64
2023/01/17 09:21:50;;;;;;;34.97;18.80;;;1.10;99.90;;;;;;5010538;28;20197;-64
2023/01/17 09:24:15;;;;;;;29.60;19.30;;;1.10;99.90;;;;;;4995352;28;20203;-64
2023/01/17 09:26:41;;;;;;;29.27;17.87;;;1.10;99.90;;;;;;4995289;28;20243;-64
2023/01/17 09:29:07;;;;;;;29.87;19.63;;;1.20;99.90;;;;;;4994114;28;20208;-64
2023/01/17 09:31:33;;;;;;;27.70;19.10;;;1.30;99.90;;;;;;4995283;28;20255;-64
2023/01/17 09:33:58;;;;;;;34.53;18.50;;;1.30;99.90;;;;;;4995507;28;20253;-64
2023/01/17 09:36:30;;;;;;;33.97;20.10;;;1.50;99.90;;;;;;4993921;28;20199;-64
2023/01/17 09:39:00;;;;;;;31.83;19.93;;;1.60;99.90;;;;;;4993946;28;20176;-64
2023/01/17 09:42:08;;;;;;;37.13;20.40;;;1.60;99.90;;;;;;4995050;28;20608;-64
2023/01/17 09:44:44;;;;;;;27.70;18.60;;;1.60;99.90;;;;;;4974064;28;20347;-64
2023/01/17 09:47:39;;;;;;;28.87;19.10;;;1.60;99.90;;;;;;5010166;28;20180;-64
2023/01/17 09:50:19;;;;;;;30.57;17.30;;;1.60;99.90;;;;;;4995009;28;20168;-64
2023/01/17 09:52:45;;;;;;;27.13;17.97;;;1.60;99.90;;;;;;4995111;28;20200;-64
2023/01/17 09:55:15;;;;;;;23.00;16.77;;;1.60;99.90;;;;;;4994630;28;20212;-64
2023/01/17 09:57:41;;;;;;;23.30;16.77;;;1.60;99.90;;;;;;5009965;28;20189;-64
2023/01/17 10:00:21;;;;;;;20.50;16.03;;;1.60;99.90;;;;;;4995060;28;20180;-64
2023/01/17 10:03:12;;;;;;;25.47;17.63;;;1.60;99.90;;;;;;4993408;28;20291;-64
2023/01/17 10:06:13;;;;;;;26.73;16.57;;;1.70;99.90;;;;;;4994715;28;20161;-63
2023/01/17 10:09:07;;;;;;;24.77;16.43;;;1.80;99.90;;;;;;4994967;28;20164;-64
2023/01/17 10:11:45;;;;;;;31.67;16.73;;;1.90;99.90;;;;;;4994597;28;20165;-64
2023/01/17 10:14:14;;;;;;;25.63;16.43;;;2.10;99.90;;;;;;4994391;28;20212;-64
2023/01/17 10:16:46;;;;;;;22.63;15.57;;;2.10;99.90;;;;;;4994378;28;20192;-64
2023/01/17 10:19:12;;;;;;;25.77;16.67;;;2.10;99.90;;;;;;4993861;28;20649;-64
2023/01/17 10:21:44;;;;;;;26.33;16.17;;;2.10;99.90;;;;;;4994409;28;20288;-64
2023/01/17 10:24:36;;;;;;;25.17;16.13;;;2.10;99.90;;;;;;4994686;28;20207;-64
2023/01/17 10:27:18;;;;;;;20.40;16.33;;;2.20;99.90;;;;;;4994241;28;20272;-64
2023/01/17 10:29:46;;;;;;;23.63;15.83;;;2.30;99.90;;;;;;4993243;28;20184;-64
2023/01/17 10:32:14;;;;;;;22.80;15.57;;;2.40;99.90;;;;;;4994366;28;20211;-64
2023/01/17 10:34:48;;;;;;;20.20;14.67;;;2.50;99.90;;;;;;4994564;28;20260;-64
2023/01/17 10:37:26;;;;;;;19.63;13.53;;;2.60;99.90;;;;;;4994516;28;20243;-64
2023/01/17 10:39:57;;;;;;;20.70;14.50;;;2.70;99.90;;;;;;4992940;28;20188;-64
2023/01/17 10:42:27;;;;;;;16.93;13.93;;;2.70;99.90;;;;;;4993722;28;20567;-65
2023/01/17 10:45:19;;;;;;;17.80;14.57;;;2.80;99.90;;;;;;4994095;28;20200;-64
2023/01/17 10:47:51;;;;;;;19.50;14.17;;;2.90;99.90;;;;;;4994072;28;20649;-64
2023/01/17 10:50:21;;;;;;;19.40;13.57;;;3.10;99.90;;;;;;4992847;28;20605;-64
2023/01/17 10:52:54;;;;;;;19.20;13.97;;;3.10;99.90;;;;;;4994261;28;20192;-64
2023/01/17 10:55:42;;;;;;;17.87;14.37;;;3.00;99.90;;;;;;4993861;28;20163;-64
2023/01/17 10:58:11;;;;;;;23.03;14.90;;;3.10;99.90;;;;;;5009111;28;20559;-64
2023/01/17 11:01:02;;;;;;;16.63;14.20;;;3.20;99.90;;;;;;5008952;28;20235;-64
2023/01/17 11:03:28;;;;;;;23.57;15.17;;;3.40;99.90;;;;;;4963628;28;20248;-64
2023/01/17 11:06:16;;;;;;;20.20;15.00;;;3.50;99.90;;;;;;4994146;28;20207;-64
2023/01/17 11:08:56;;;;;;;24.10;13.90;;;3.40;99.90;;;;;;4994100;28;20176;-64
2023/01/17 11:11:31;;;;;;;29.63;15.00;;;3.20;99.90;;;;;;4993622;28;20180;-64
2023/01/17 11:14:05;;;;;;;23.07;14.77;;;3.30;99.90;;;;;;4993867;28;20265;-64
2023/01/17 11:16:31;;;;;;;17.53;14.93;;;3.50;99.90;;;;;;4993793;28;20188;-64
2023/01/17 11:19:11;;;;;;;18.03;13.57;;;3.60;99.90;;;;;;4993833;28;20187;-64
2023/01/17 11:21:39;;;;;;;22.67;13.83;;;4.00;99.90;;;;;;4993640;28;20588;-64
2023/01/17 11:24:11;;;;;;;20.50;11.80;;;4.10;99.90;;;;;;5008848;28;20200;-64
2023/01/17 11:26:44;;;;;;;15.37;11.53;;;4.10;99.90;;;;;;4992355;28;20698;-64
2023/01/17 11:29:24;;;;;;;18.90;12.50;;;4.20;99.90;;;;;;5008839;28;20703;-64
2023/01/17 11:31:50;;;;;;;13.40;11.63;;;4.10;99.90;;;;;;4997782;28;20196;-64
2023/01/17 11:34:22;;;;;;;22.43;12.30;;;4.20;99.90;;;;;;4997308;28;20235;-64
2023/01/17 11:36:49;;;;;;;19.60;11.87;;;4.50;99.90;;;;;;4997748;28;20175;-64
2023/01/17 11:39:17;;;;;;;14.63;11.00;;;4.90;99.90;;;;;;4997905;28;20230;-64
2023/01/17 11:41:44;;;;;;;15.50;10.90;;;4.80;99.90;;;;;;4995760;28;20270;-64
2023/01/17 11:44:25;;;;;;;13.27;10.77;;;5.10;99.90;;;;;;5012196;28;20220;-64
2023/01/17 11:47:12;;;;;;;16.70;11.50;;;5.00;99.90;;;;;;4997203;28;20641;-64
2023/01/17 11:49:43;;;;;;;12.50;9.90;;;4.80;99.90;;;;;;4996036;28;20184;-63
2023/01/17 11:52:30;;;;;;;13.90;9.93;;;4.70;99.90;;;;;;5012192;28;20548;-64
2023/01/17 11:54:57;;;;;;;14.00;10.17;;;4.70;99.90;;;;;;4997347;28;20226;-64
2023/01/17 11:57:30;;;;;;;12.87;9.90;;;4.70;99.90;;;;;;4995571;28;20626;-64
2023/01/17 12:00:10;;;;;;;14.03;9.67;;;4.80;99.90;;;;;;4997278;28;20176;-63
2023/01/17 12:03:00;;;;;;;19.33;9.47;;;4.70;99.90;;;;;;4996926;28;20299;-63
2023/01/17 12:05:52;;;;;;;18.33;9.40;;;4.70;99.90;;;;;;4997264;28;20641;-64
2023/01/17 12:08:36;;;;;;;14.50;9.80;;;4.60;99.90;;;;;;4996951;28;20184;-64
2023/01/17 12:11:34;;;;;;;12.67;9.57;;;4.60;99.90;;;;;;4996678;28;20177;-63
2023/01/17 12:14:22;;;;;;;13.63;9.10;;;4.50;99.90;;;;;;4989270;28;20231;-64
2023/01/17 12:16:57;;;;;;;15.10;9.40;;;4.30;99.90;;;;;;5011722;28;20199;-64
2023/01/17 12:19:59;;;;;;;14.77;9.13;;;4.00;99.90;;;;;;4996912;28;20636;-64
2023/01/17 12:22:48;;;;;;;15.57;9.53;;;3.90;99.90;;;;;;4997165;28;20565;-64
2023/01/17 12:25:54;;;;;;;10.33;9.27;;;4.00;99.90;;;;;;4996683;28;20161;-64
2023/01/17 12:28:45;;;;;;;14.40;9.60;;;4.00;99.90;;;;;;4992409;28;20184;-64
2023/01/17 12:31:16;;;;;;;16.10;9.33;;;4.00;99.90;;;;;;4997184;28;20180;-64
2023/01/17 12:34:17;;;;;;;14.80;8.97;;;4.20;99.90;;;;;;4996882;28;20200;-64
2023/01/17 12:36:51;;;;;;;15.33;9.10;;;4.50;99.90;;;;;;4978058;28;20200;-64
2023/01/17 12:39:24;;;;;;;14.73;9.83;;;4.80;99.90;;;;;;4996789;28;20671;-64
2023/01/17 12:42:00;;;;;;;21.33;9.57;;;5.00;99.90;;;;;;4995294;28;20192;-65
2023/01/17 12:44:38;;;;;;;14.03;8.77;;;4.90;99.90;;;;;;4996025;28;20200;-64
2023/01/17 12:47:05;;;;;;;19.20;10.20;;;4.90;99.90;;;;;;4994954;28;20169;-63
2023/01/17 12:49:48;;;;;;;9.70;8.60;;;4.60;99.90;;;;;;4995985;28;20183;-64
2023/01/17 12:52:37;;;;;;;12.10;8.37;;;4.60;99.90;;;;;;4994817;28;20215;-64
2023/01/17 12:55:10;;;;;;;11.10;8.27;;;4.60;99.90;;;;;;4996594;28;20173;-64
2023/01/17 12:57:53;;;;;;;11.27;8.73;;;4.40;99.90;;;;;;4995920;28;20303;-64
2023/01/17 13:00:24;;;;;;;14.60;7.70;;;4.10;99.90;;;;;;5010922;28;20551;-64
2023/01/17 13:03:10;;;;;;;10.17;8.07;;;3.90;99.90;;;;;;4996249;28;20192;-64
2023/01/17 13:05:40;;;;;;;11.67;8.63;;;3.90;99.90;;;;;;4995835;28;20211;-64
2023/01/17 13:08:37;;;;;;;13.13;9.03;;;3.80;99.90;;;;;;4996056;28;20644;-64
2023/01/17 13:11:08;;;;;;;13.63;8.40;;;3.70;99.90;;;;;;4995847;28;20513;-64
2023/01/17 13:13:35;;;;;;;8.60;7.80;;;3.60;99.90;;;;;;4995742;28;20203;-64
2023/01/17 13:16:14;;;;;;;13.57;8.17;;;3.60;99.90;;;;;;5010675;28;20188;-64
2023/01/17 13:18:45;;;;;;;9.60;7.63;;;3.60;99.90;;;;;;4996000;28;20192;-64
2023/01/17 13:21:31;;;;;;;11.70;7.97;;;3.50;99.90;;;;;;4994276;28;20576;-64
2023/01/17 13:24:04;;;;;;;17.73;8.60;;;3.50;99.90;;;;;;4995535;28;20192;-64
2023/01/17 13:26:51;;;;;;;10.47;7.90;;;3.70;99.90;;;;;;4995579;28;20626;-63
2023/01/17 13:29:25;;;;;;;9.90;8.10;;;4.20;99.90;;;;;;4995417;28;20160;-64
2023/01/17 13:32:14;;;;;;;10.23;7.40;;;4.50;99.90;;;;;;4995673;28;20164;-64
2023/01/17 13:35:16;;;;;;;17.70;7.43;;;4.60;99.90;;;;;;4995243;28;20680;-64
2023/01/17 13:37:57;;;;;;;11.83;7.77;;;4.70;99.90;;;;;;4995575;28;20164;-64
2023/01/17 13:40:41;;;;;;;12.07;7.30;;;4.90;99.90;;;;;;4993884;28;20184;-64
2023/01/17 13:43:25;;;;;;;13.10;7.60;;;5.00;99.90;;;;;;4995117;28;20644;-64
2023/01/17 13:45:53;;;;;;;11.47;6.47;;;5.00;99.90;;;;;;4995259;28;20207;-64
2023/01/17 13:48:26;;;;;;;12.47;6.90;;;5.10;99.90;;;;;;5010201;28;20633;-64
2023/01/17 13:51:04;;;;;;;9.97;6.57;;;5.30;99.90;;;;;;4995035;28;20183;-64
2023/01/17 13:53:35;;;;;;;8.50;6.50;;;5.10;99.90;;;;;;4994020;28;20653;-63
2023/01/17 13:56:10;;;;;;;8.47;6.67;;;5.10;99.90;;;;;;4994809;28;20180;-64
2023/01/17 13:59:03;;;;;;;7.50;6.60;;;4.90;99.90;;;;;;4994852;28;20212;-63
2023/01/17 14:01:37;;;;;;;11.40;7.33;;;4.60;99.90;;;;;;4992444;28;20220;-63
2023/01/17 14:04:10;;;;;;;11.43;7.67;;;4.70;99.90;;;;;;4994774;28;20205;-64
2023/01/17 14:06:47;;;;;;;7.07;6.37;;;4.60;99.90;;;;;;5009848;28;20672;-64
2023/01/17 14:09:43;;;;;;;8.83;6.60;;;4.50;99.90;;;;;;4995246;28;20192;-63
2023/01/17 14:12:13;;;;;;;10.10;6.80;;;4.40;99.90;;;;;;4982068;28;20591;-64
2023/01/17 14:14:39;;;;;;;7.47;6.73;;;4.30;99.90;;;;;;4994571;28;20180;-65
2023/01/17 14:17:28;;;;;;;7.27;6.53;;;4.20;99.90;;;;;;4994575;28;20264;-64
2023/01/17 14:19:59;;;;;;;7.40;6.70;;;4.20;99.90;;;;;;4995033;28;20558;-64
2023/01/17 14:22:28;;;;;;;8.67;6.60;;;4.20;99.90;;;;;;4994472;28;20197;-64
2023/01/17 14:25:11;;;;;;;13.87;6.93;;;4.10;99.90;;;;;;5009624;28;20235;-63
2023/01/17 14:27:42;;;;;;;12.93;6.93;;;3.90;99.90;;;;;;4994295;28;20196;-63